createdAt,value
2022-08-26T00:01:56.792Z,100233.09
2022-08-26T00:04:25.467Z,100234.50
2022-08-26T00:06:54.557Z,100237.59
2022-08-26T00:09:21.808Z,100235.06
2022-08-26T00:11:48.986Z,100237.63
2022-08-26T00:14:16.777Z,100235.59
2022-08-26T00:16:47.852Z,100231.88
2022-08-26T00:19:18.194Z,100231.50
2022-08-26T00:21:46.394Z,100230.81
2022-08-26T00:24:16.046Z,100221.94
2022-08-26T00:26:43.371Z,100221.94
2022-08-26T00:29:10.310Z,100222.63
2022-08-26T00:31:37.736Z,100226.03
2022-08-26T00:34:05.764Z,100230.13
2022-08-26T00:36:32.710Z,100233.22
2022-08-26T00:38:59.599Z,100228.28
2022-08-26T00:41:28.780Z,100223.19
2022-08-26T00:43:55.665Z,100233.41
2022-08-26T00:46:28.902Z,100225.56
2022-08-26T00:49:11.683Z,100229.16
2022-08-26T00:51:44.637Z,100228.28
2022-08-26T00:54:12.861Z,100229.66
2022-08-26T00:57:01.545Z,100229.00
2022-08-26T00:59:32.634Z,100238.53
2022-08-26T01:02:00.438Z,100233.03
2022-08-26T01:04:30.818Z,100223.34
2022-08-26T01:06:57.921Z,100227.13
2022-08-26T01:09:24.913Z,100220.28
2022-08-26T01:11:56.009Z,100208.03
2022-08-26T01:14:23.552Z,100217.41
2022-08-26T01:16:50.657Z,100220.47
2022-08-26T01:19:43.562Z,100214.81
2022-08-26T01:22:20.517Z,100225.91
2022-08-26T01:24:47.938Z,100226.94
2022-08-26T01:27:18.878Z,100225.22
2022-08-26T01:29:47.219Z,100219.59
2022-08-26T01:32:18.628Z,100223.19
2022-08-26T01:34:47.042Z,100221.66
2022-08-26T01:37:16.399Z,100228.97
2022-08-26T01:39:44.964Z,100223.84
2022-08-26T01:42:14.649Z,100220.78
2022-08-26T01:44:56.543Z,100222.81
2022-08-26T01:47:26.237Z,100224.22
2022-08-26T01:49:54.811Z,100222.47
2022-08-26T01:52:28.022Z,100215.34
2022-08-26T01:54:56.491Z,100217.22
2022-08-26T01:57:25.010Z,100219.59
2022-08-26T01:59:53.225Z,100219.44
2022-08-26T02:02:20.579Z,100221.62
2022-08-26T02:04:51.791Z,100218.06
2022-08-26T02:07:19.655Z,100220.59
2022-08-26T02:09:48.638Z,100221.59
2022-08-26T02:12:18.046Z,100223.66
2022-08-26T02:14:53.269Z,100220.94
2022-08-26T02:17:23.093Z,100219.25
2022-08-26T02:19:50.599Z,100218.91
2022-08-26T02:22:24.628Z,100224.38
2022-08-26T02:25:12.416Z,100219.09
2022-08-26T02:27:39.773Z,100222.47
2022-08-26T02:30:09.417Z,100220.97
2022-08-26T02:32:37.289Z,100223.69
2022-08-26T02:35:08.170Z,100221.81
2022-08-26T02:37:35.157Z,100220.78
2022-08-26T02:40:03.974Z,100208.50
2022-08-26T02:42:31.279Z,100217.72
2022-08-26T02:44:58.170Z,100215.97
2022-08-26T02:47:25.577Z,100213.44
2022-08-26T02:49:56.368Z,100221.88
2022-08-26T02:52:23.398Z,100220.25
2022-08-26T02:54:50.383Z,100213.94
2022-08-26T02:57:17.883Z,100218.03
2022-08-26T02:59:44.754Z,100222.41
2022-08-26T03:02:12.321Z,100212.84
2022-08-26T03:04:39.931Z,100209.81
2022-08-26T03:07:07.253Z,100209.78
2022-08-26T03:09:35.282Z,100206.00
2022-08-26T03:12:02.322Z,100203.97
2022-08-26T03:14:29.861Z,100206.50
2022-08-26T03:16:56.685Z,100218.06
2022-08-26T03:19:24.862Z,100210.78
2022-08-26T03:21:52.951Z,100210.09
2022-08-26T03:24:25.570Z,100214.34
2022-08-26T03:26:53.030Z,100209.06
2022-08-26T03:29:39.793Z,100211.62
2022-08-26T03:32:06.904Z,100207.72
2022-08-26T03:34:34.274Z,100207.84
2022-08-26T03:37:01.575Z,100211.56
2022-08-26T03:39:28.499Z,100203.37
2022-08-26T03:41:58.970Z,100205.06
2022-08-26T03:44:26.715Z,100202.50
2022-08-26T03:46:54.610Z,100195.50
2022-08-26T03:49:22.223Z,100202.03
2022-08-26T03:51:49.114Z,100203.75
2022-08-26T03:54:22.052Z,100201.41
2022-08-26T03:56:49.019Z,100201.75
2022-08-26T03:59:15.820Z,100200.25
2022-08-26T04:01:42.761Z,100199.25
2022-08-26T04:04:09.637Z,100200.78
2022-08-26T04:06:46.034Z,100201.31
2022-08-26T04:09:15.649Z,100196.72
2022-08-26T04:11:44.882Z,100192.84
2022-08-26T04:14:20.263Z,100196.41
2022-08-26T04:16:47.240Z,100187.03
2022-08-26T04:19:14.805Z,100198.28
2022-08-26T04:21:42.013Z,100197.59
2022-08-26T04:24:11.895Z,100200.50
2022-08-26T04:26:42.797Z,100205.78
2022-08-26T04:29:17.673Z,100206.31
2022-08-26T04:31:45.437Z,100198.47
2022-08-26T04:34:14.147Z,100204.41
2022-08-26T04:36:43.137Z,100192.69
2022-08-26T04:39:16.872Z,100196.91
2022-08-26T04:41:47.468Z,100202.56
2022-08-26T04:44:16.507Z,100194.19
2022-08-26T04:46:44.581Z,100191.78
2022-08-26T04:49:11.998Z,100186.44
2022-08-26T04:51:39.472Z,100178.81
2022-08-26T04:54:07.039Z,100167.84
2022-08-26T04:56:37.166Z,100158.19
2022-08-26T04:59:06.484Z,100172.09
2022-08-26T05:01:35.007Z,100171.41
2022-08-26T05:04:07.955Z,100173.56
2022-08-26T05:06:36.920Z,100141.16
2022-08-26T05:09:04.562Z,100135.37
2022-08-26T05:11:31.498Z,100130.91
2022-08-26T05:14:02.160Z,100100.16
2022-08-26T05:16:30.361Z,100124.13
2022-08-26T05:18:57.608Z,100110.31
2022-08-26T05:21:26.804Z,100116.03
2022-08-26T05:23:57.209Z,100114.56
2022-08-26T05:26:26.269Z,100122.00
2022-08-26T05:28:54.669Z,100121.28
2022-08-26T05:31:25.239Z,100121.59
2022-08-26T05:33:52.481Z,100131.81
2022-08-26T05:36:21.909Z,100153.34
2022-08-26T05:38:49.122Z,100148.41
2022-08-26T05:41:24.979Z,100153.06
2022-08-26T05:43:52.809Z,100151.38
2022-08-26T05:46:20.170Z,100155.25
2022-08-26T05:48:47.456Z,100151.50
2022-08-26T05:51:14.575Z,100155.44
2022-08-26T05:53:43.996Z,100150.03
2022-08-26T05:56:27.840Z,100145.75
2022-08-26T05:58:58.331Z,100151.44
2022-08-26T06:01:27.520Z,100139.88
2022-08-26T06:03:57.109Z,100147.03
2022-08-26T06:06:29.826Z,100141.81
2022-08-26T06:08:59.445Z,100148.56
2022-08-26T06:11:27.507Z,100141.63
2022-08-26T06:14:00.028Z,100140.22
2022-08-26T06:16:30.171Z,100148.09
2022-08-26T06:18:57.680Z,100126.28
2022-08-26T06:21:30.036Z,100147.84
2022-08-26T06:24:27.154Z,100119.94
2022-08-26T06:26:57.590Z,100121.03
2022-08-26T06:29:26.202Z,100120.59
2022-08-26T06:31:56.147Z,100129.03
2022-08-26T06:34:26.723Z,100132.88
2022-08-26T06:36:59.631Z,100127.16
2022-08-26T06:39:26.566Z,100123.53
2022-08-26T06:41:57.532Z,100111.75
2022-08-26T06:44:24.491Z,100113.59
2022-08-26T06:46:51.561Z,100112.59
2022-08-26T06:49:26.999Z,100130.72
2022-08-26T06:51:58.347Z,100126.03
2022-08-26T06:54:26.622Z,100110.88
2022-08-26T06:56:53.863Z,100118.91
2022-08-26T06:59:21.858Z,100109.09
2022-08-26T07:01:49.808Z,100110.75
2022-08-26T07:04:22.030Z,100112.50
2022-08-26T07:06:52.373Z,100101.69
2022-08-26T07:09:21.490Z,100095.69
2022-08-26T07:11:48.614Z,100078.09
2022-08-26T07:14:21.424Z,100092.50
2022-08-26T07:16:50.656Z,100098.81
2022-08-26T07:19:28.988Z,100085.56
2022-08-26T07:22:01.813Z,100086.34
2022-08-26T07:24:29.344Z,100100.03
2022-08-26T07:27:05.473Z,100103.06
2022-08-26T07:29:33.288Z,100095.94
2022-08-26T07:32:00.640Z,100078.47
2022-08-26T07:34:28.057Z,100091.72
2022-08-26T07:36:56.994Z,100087.00
2022-08-26T07:39:25.307Z,100081.59
2022-08-26T07:41:53.008Z,100081.75
2022-08-26T07:44:20.030Z,100057.06
2022-08-26T07:46:53.345Z,100077.13
2022-08-26T07:49:24.344Z,100069.31
2022-08-26T07:51:51.486Z,100054.94
2022-08-26T07:54:18.644Z,100075.38
2022-08-26T07:56:46.283Z,100088.19
2022-08-26T07:59:15.026Z,100078.56
2022-08-26T08:01:45.056Z,100066.00
2022-08-26T08:04:17.377Z,100080.69
2022-08-26T08:06:45.636Z,100067.47
2022-08-26T08:09:16.201Z,100070.75
2022-08-26T08:11:44.790Z,100049.53
2022-08-26T08:14:12.164Z,100062.22
2022-08-26T08:16:46.040Z,100049.41
2022-08-26T08:19:15.068Z,100032.97
2022-08-26T08:21:43.173Z,100011.69
2022-08-26T08:24:11.065Z,100035.97
2022-08-26T08:26:38.021Z,100023.94
2022-08-26T08:29:08.022Z,99999.84
2022-08-26T08:31:56.514Z,100009.72
2022-08-26T08:34:23.940Z,100012.22
2022-08-26T08:36:53.507Z,100005.34
2022-08-26T08:39:21.997Z,100003.44
2022-08-26T08:42:13.706Z,100016.81
2022-08-26T08:44:42.969Z,100009.97
2022-08-26T08:47:19.833Z,100001.59
2022-08-26T08:49:47.628Z,100001.16
2022-08-26T08:52:29.101Z,99993.69
2022-08-26T08:54:56.237Z,99991.38
2022-08-26T08:57:50.318Z,99986.88
2022-08-26T09:00:30.629Z,99957.88
2022-08-26T09:03:02.349Z,99990.62
2022-08-26T09:05:34.045Z,99987.59
2022-08-26T09:08:06.637Z,99977.44
2022-08-26T09:10:39.819Z,99981.13
2022-08-26T09:13:13.670Z,100003.56
2022-08-26T09:15:59.072Z,99986.69
2022-08-26T09:18:37.163Z,99979.72
2022-08-26T09:21:07.418Z,99984.06
2022-08-26T09:23:37.290Z,99987.91
2022-08-26T09:26:24.694Z,99965.13
2022-08-26T09:29:00.906Z,99956.94
2022-08-26T09:31:32.455Z,99969.44
2022-08-26T09:34:23.999Z,99981.25
2022-08-26T09:36:53.603Z,99945.75
2022-08-26T09:39:26.043Z,99958.03
2022-08-26T09:42:12.800Z,99963.41
2022-08-26T09:44:59.492Z,99965.34
2022-08-26T09:47:35.343Z,99922.41
2022-08-26T09:50:09.701Z,99953.13
2022-08-26T09:52:37.104Z,99974.94
2022-08-26T09:55:21.207Z,99974.09
2022-08-26T09:57:59.938Z,99985.16
2022-08-26T10:00:42.211Z,99976.88
2022-08-26T10:03:24.169Z,99994.41
2022-08-26T10:06:00.409Z,99969.47
2022-08-26T10:08:39.668Z,99978.03
2022-08-26T10:11:16.217Z,99968.97
2022-08-26T10:13:47.734Z,99947.69
2022-08-26T10:16:28.446Z,99953.13
2022-08-26T10:19:04.764Z,99971.75
2022-08-26T10:21:37.002Z,99977.44
2022-08-26T10:24:05.073Z,99956.78
2022-08-26T10:26:50.832Z,99949.94
2022-08-26T10:29:24.748Z,99956.16
2022-08-26T10:31:58.739Z,99943.25
2022-08-26T10:34:29.486Z,99921.44
2022-08-26T10:37:16.431Z,99944.66
2022-08-26T10:39:49.513Z,99923.56
2022-08-26T10:42:50.444Z,99929.28
2022-08-26T10:45:25.339Z,99940.34
2022-08-26T10:47:57.497Z,99916.47
2022-08-26T10:50:28.379Z,99919.53
2022-08-26T10:53:13.412Z,99913.34
2022-08-26T10:55:57.348Z,99917.87
2022-08-26T10:58:58.322Z,99924.09
2022-08-26T11:01:47.032Z,99896.50
2022-08-26T11:04:17.791Z,99880.63
2022-08-26T11:06:46.151Z,99900.91
2022-08-26T11:09:43.968Z,99889.94
2022-08-26T11:12:37.820Z,99896.72
2022-08-26T11:15:20.046Z,99900.81
2022-08-26T11:17:51.680Z,99901.59
2022-08-26T11:20:45.136Z,99881.84
2022-08-26T11:23:12.889Z,99862.31
2022-08-26T11:26:05.322Z,99873.03
2022-08-26T11:28:36.161Z,99876.66
2022-08-26T11:31:05.863Z,99852.47
2022-08-26T11:33:58.270Z,99867.84
2022-08-26T11:36:40.999Z,99863.31
2022-08-26T11:39:24.419Z,99851.19
2022-08-26T11:41:53.801Z,99851.69
2022-08-26T11:44:26.073Z,99867.19
2022-08-26T11:47:01.189Z,99864.16
2022-08-26T11:49:29.105Z,99855.50
2022-08-26T11:52:12.691Z,99844.22
2022-08-26T11:54:40.867Z,99827.44
2022-08-26T11:57:12.536Z,99831.97
2022-08-26T11:59:40.392Z,99838.75
2022-08-26T12:02:16.802Z,99828.44
2022-08-26T12:04:48.462Z,99818.13
2022-08-26T12:07:16.367Z,99814.12
2022-08-26T12:09:58.799Z,99815.56
2022-08-26T12:12:34.716Z,99805.56
2022-08-26T12:15:17.872Z,99795.50
2022-08-26T12:17:49.444Z,99786.00
2022-08-26T12:20:48.342Z,99760.34
2022-08-26T12:23:40.468Z,99772.19
2022-08-26T12:26:27.592Z,99792.53
2022-08-26T12:28:55.058Z,99786.66
2022-08-26T12:31:28.669Z,99769.34
2022-08-26T12:33:57.289Z,99779.59
2022-08-26T12:36:32.528Z,99772.81
2022-08-26T12:39:10.184Z,99767.19
2022-08-26T12:41:49.652Z,99779.87
2022-08-26T12:44:37.415Z,99793.41
2022-08-26T12:47:43.038Z,99780.03
2022-08-26T12:50:19.144Z,99774.00
2022-08-26T12:53:04.293Z,99760.75
2022-08-26T12:56:27.213Z,99768.53
2022-08-26T12:59:10.274Z,99785.56
2022-08-26T13:01:43.046Z,99738.62
2022-08-26T13:04:35.137Z,99750.00
2022-08-26T13:07:20.889Z,99762.13
2022-08-26T13:09:48.607Z,99755.88
2022-08-26T13:12:29.452Z,99755.81
2022-08-26T13:14:58.770Z,99749.37
2022-08-26T13:17:27.297Z,99740.44
2022-08-26T13:19:54.687Z,99743.81
2022-08-26T13:22:27.133Z,99742.75
2022-08-26T13:24:56.319Z,99746.12
2022-08-26T13:27:27.559Z,99741.09
2022-08-26T13:29:55.505Z,99729.38
2022-08-26T13:32:24.789Z,99738.84
2022-08-26T13:34:55.827Z,99746.06
2022-08-26T13:37:34.243Z,99733.50
2022-08-26T13:40:01.826Z,99725.41
2022-08-26T13:42:29.419Z,99725.97
2022-08-26T13:44:58.187Z,99724.00
2022-08-26T13:47:26.110Z,99722.03
2022-08-26T13:49:55.268Z,99736.00
2022-08-26T13:52:30.180Z,99739.06
2022-08-26T13:54:58.698Z,99748.94
2022-08-26T13:57:27.945Z,99742.37
2022-08-26T13:59:56.517Z,99740.25
2022-08-26T14:02:23.518Z,99747.69
2022-08-26T14:04:50.460Z,99752.59
2022-08-26T14:07:17.431Z,99758.06
2022-08-26T14:09:44.259Z,99777.66
2022-08-26T14:12:11.146Z,99776.16
2022-08-26T14:14:37.991Z,99769.72
2022-08-26T14:17:04.833Z,99725.31
2022-08-26T14:19:31.681Z,99755.69
2022-08-26T14:22:00.694Z,99762.66
2022-08-26T14:24:28.845Z,99773.59
2022-08-26T14:26:55.827Z,99771.50
2022-08-26T14:29:22.674Z,99765.72
2022-08-26T14:31:49.685Z,99793.91
2022-08-26T14:34:16.731Z,99801.97
2022-08-26T14:36:43.722Z,99803.81
2022-08-26T14:39:12.951Z,99800.19
2022-08-26T14:41:54.567Z,99792.47
2022-08-26T14:44:30.752Z,99787.37
2022-08-26T14:46:57.821Z,99803.97
2022-08-26T14:49:27.186Z,99806.06
2022-08-26T14:51:54.764Z,99801.00
2022-08-26T14:54:21.792Z,99795.47
2022-08-26T14:57:05.571Z,99806.56
2022-08-26T14:59:38.323Z,99810.66
2022-08-26T15:02:06.731Z,99794.66
2022-08-26T15:04:34.010Z,99800.31
2022-08-26T15:07:01.223Z,99800.31
2022-08-26T15:09:29.334Z,99808.06
2022-08-26T15:11:56.957Z,99796.66
2022-08-26T15:14:24.095Z,99813.03
2022-08-26T15:16:53.857Z,99806.56
2022-08-26T15:19:21.283Z,99796.66
2022-08-26T15:21:48.789Z,99791.28
2022-08-26T15:24:19.300Z,99790.38
2022-08-26T15:26:47.339Z,99795.31
2022-08-26T15:29:14.621Z,99790.88
2022-08-26T15:31:41.998Z,99806.88
2022-08-26T15:34:14.577Z,99796.91
2022-08-26T15:36:44.927Z,99788.31
2022-08-26T15:39:12.740Z,99789.66
2022-08-26T15:41:39.961Z,99794.87
2022-08-26T15:44:07.514Z,99789.50
2022-08-26T15:46:35.292Z,99788.06
2022-08-26T15:49:03.743Z,99782.75
2022-08-26T15:51:34.240Z,99793.50
2022-08-26T15:54:03.489Z,99797.19
2022-08-26T15:56:34.592Z,99815.12
2022-08-26T15:59:02.974Z,99791.06
2022-08-26T16:01:31.713Z,99797.28
2022-08-26T16:03:59.549Z,99793.88
2022-08-26T16:06:29.090Z,99797.88
2022-08-26T16:08:56.356Z,99805.88
2022-08-26T16:11:24.316Z,99809.87
2022-08-26T16:13:51.656Z,99796.78
2022-08-26T16:16:18.686Z,99805.25
2022-08-26T16:18:45.953Z,99805.75
2022-08-26T16:21:17.457Z,99811.66
2022-08-26T16:23:45.341Z,99798.47
2022-08-26T16:26:21.023Z,99802.31
2022-08-26T16:28:48.103Z,99810.37
2022-08-26T16:31:15.627Z,99803.06
2022-08-26T16:33:42.807Z,99797.53
2022-08-26T16:36:10.330Z,99799.91
2022-08-26T16:38:37.697Z,99806.09
2022-08-26T16:41:05.880Z,99818.97
2022-08-26T16:43:32.744Z,99820.06
2022-08-26T16:45:59.751Z,99822.12
2022-08-26T16:48:27.505Z,99827.75
2022-08-26T16:50:55.608Z,99828.59
2022-08-26T16:53:23.544Z,99827.56
2022-08-26T16:55:51.306Z,99840.75
2022-08-26T16:58:22.006Z,99839.56
2022-08-26T17:00:49.288Z,99839.56
2022-08-26T17:03:16.211Z,99845.66
2022-08-26T17:05:43.115Z,99853.72
2022-08-26T17:08:10.474Z,99849.84
2022-08-26T17:10:37.717Z,99851.44
2022-08-26T17:13:05.036Z,99864.97
2022-08-26T17:15:31.973Z,99865.63
2022-08-26T17:17:59.109Z,99857.06
2022-08-26T17:20:26.515Z,99865.44
2022-08-26T17:22:54.899Z,99861.19
2022-08-26T17:25:31.691Z,99859.00
2022-08-26T17:27:59.386Z,99871.56
2022-08-26T17:30:26.980Z,99866.81
2022-08-26T17:32:56.856Z,99868.19
2022-08-26T17:35:24.675Z,99870.44
2022-08-26T17:37:51.615Z,99871.19
2022-08-26T17:40:21.059Z,99874.94
2022-08-26T17:42:48.332Z,99868.06
2022-08-26T17:45:15.608Z,99879.00
2022-08-26T17:47:42.631Z,99872.56
2022-08-26T17:50:12.850Z,99876.88
2022-08-26T17:52:40.346Z,99877.97
2022-08-26T17:55:08.853Z,99881.22
2022-08-26T17:57:40.669Z,99880.88
2022-08-26T18:00:16.186Z,99890.91
2022-08-26T18:02:43.360Z,99891.16
2022-08-26T18:05:13.297Z,99885.31
2022-08-26T18:07:43.607Z,99898.09
2022-08-26T18:10:14.005Z,99889.66
2022-08-26T18:12:41.748Z,99883.59
2022-08-26T18:15:10.529Z,99895.88
2022-08-26T18:17:39.353Z,99892.97
2022-08-26T18:20:12.503Z,99891.28
2022-08-26T18:22:39.956Z,99898.16
2022-08-26T18:25:08.080Z,99905.56
2022-08-26T18:27:36.135Z,99916.38
2022-08-26T18:30:06.556Z,99908.38
2022-08-26T18:32:33.375Z,99899.47
2022-08-26T18:35:00.448Z,99907.09
2022-08-26T18:37:30.902Z,99903.50
2022-08-26T18:39:59.599Z,99903.31
2022-08-26T18:42:27.202Z,99915.13
2022-08-26T18:44:54.078Z,99910.03
2022-08-26T18:47:21.060Z,99904.34
2022-08-26T18:49:48.662Z,99910.28
2022-08-26T18:52:15.728Z,99908.16
2022-08-26T18:54:43.452Z,99908.13
2022-08-26T18:57:11.373Z,99916.97
2022-08-26T18:59:38.410Z,99912.13
2022-08-26T19:02:05.412Z,99915.66
2022-08-26T19:04:32.546Z,99904.66
2022-08-26T19:06:59.655Z,99909.09
2022-08-26T19:09:26.710Z,99912.25
2022-08-26T19:14:23.405Z,99909.50
2022-08-26T19:16:52.410Z,99912.19
2022-08-26T19:19:21.106Z,99918.22
2022-08-26T19:21:48.107Z,99914.53
2022-08-26T19:24:17.410Z,99924.75
2022-08-26T19:26:50.306Z,99928.22
2022-08-26T19:29:21.989Z,99931.94
2022-08-26T19:31:49.056Z,99930.63
2022-08-26T19:34:18.308Z,99934.34
2022-08-26T19:36:48.185Z,99928.34
2022-08-26T19:39:15.310Z,99922.59
2022-08-26T19:41:42.264Z,99923.31
2022-08-26T19:44:34.673Z,99917.91
2022-08-26T19:47:03.548Z,99922.88
2022-08-26T19:49:30.920Z,99929.84
2022-08-26T19:51:58.121Z,99933.72
2022-08-26T19:54:25.529Z,99934.41
2022-08-26T19:56:52.458Z,99950.88
2022-08-26T19:59:20.186Z,99956.41
2022-08-26T20:01:47.340Z,99944.75
2022-08-26T20:04:27.918Z,99954.84
2022-08-26T20:06:57.673Z,99961.66
2022-08-26T20:09:25.715Z,99954.50
2022-08-26T20:11:52.621Z,99963.47
2022-08-26T20:14:23.790Z,99958.91
2022-08-26T20:16:50.733Z,99956.34
2022-08-26T20:19:37.586Z,99952.12
2022-08-26T20:22:05.565Z,99942.00
2022-08-26T20:24:32.959Z,99946.84
2022-08-26T20:27:02.295Z,99941.22
2022-08-26T20:29:31.506Z,99947.03
2022-08-26T20:31:58.854Z,99934.31
2022-08-26T20:34:26.355Z,99945.91
2022-08-26T20:36:53.203Z,99945.63
2022-08-26T20:39:23.866Z,99945.09
2022-08-26T20:41:50.783Z,99956.31
2022-08-26T20:44:17.836Z,99948.84
2022-08-26T20:46:45.157Z,99930.91
2022-08-26T20:49:13.308Z,99950.88
2022-08-26T20:51:42.772Z,99940.59
2022-08-26T20:54:12.318Z,99948.16
2022-08-26T20:56:39.623Z,99932.87
2022-08-26T20:59:07.664Z,99926.34
2022-08-26T21:01:36.364Z,99955.50
2022-08-26T21:04:06.996Z,99958.53
2022-08-26T21:06:34.316Z,99958.19
2022-08-26T21:09:02.283Z,99957.66
2022-08-26T21:11:29.441Z,99967.28
2022-08-26T21:14:07.120Z,99962.91
2022-08-26T21:16:43.448Z,99961.72
2022-08-26T21:19:11.988Z,99963.97
2022-08-26T21:21:39.223Z,99962.19
2022-08-26T21:24:06.541Z,99971.41
2022-08-26T21:26:33.562Z,99971.06
2022-08-26T21:29:01.133Z,99987.72
2022-08-26T21:31:29.653Z,99996.38
2022-08-26T21:33:56.777Z,99989.84
2022-08-26T21:36:23.891Z,99997.56
2022-08-26T21:38:50.788Z,100005.19
2022-08-26T21:41:22.052Z,100008.22
2022-08-26T21:43:50.272Z,100004.09
2022-08-26T21:46:19.773Z,99998.00
2022-08-26T21:48:51.236Z,99988.06
2022-08-26T21:51:20.255Z,99995.63
2022-08-26T21:53:47.427Z,99988.41
2022-08-26T21:56:16.283Z,99983.53
2022-08-26T21:58:43.227Z,99991.72
2022-08-26T22:01:12.175Z,99990.81
2022-08-26T22:03:46.924Z,99994.19
2022-08-26T22:06:14.915Z,99994.00
2022-08-26T22:08:41.765Z,99989.47
2022-08-26T22:11:09.582Z,99975.34
2022-08-26T22:13:37.892Z,99986.56
2022-08-26T22:16:05.537Z,99995.88
2022-08-26T22:18:32.829Z,99992.56
2022-08-26T22:21:01.688Z,99989.09
2022-08-26T22:23:29.408Z,99988.25
2022-08-26T22:25:57.097Z,99994.84
2022-08-26T22:28:23.992Z,99982.41
2022-08-26T22:30:50.887Z,100014.25
2022-08-26T22:33:17.981Z,100029.91
2022-08-26T22:35:47.143Z,100011.78
2022-08-26T22:38:14.411Z,99997.88
2022-08-26T22:40:56.086Z,99997.81
2022-08-26T22:43:27.928Z,99992.31
2022-08-26T22:45:55.826Z,99981.84
2022-08-26T22:48:25.503Z,99985.25
2022-08-26T22:50:57.191Z,99990.00
2022-08-26T22:53:27.035Z,99972.03
2022-08-26T22:55:54.439Z,99984.22
2022-08-26T22:58:21.682Z,99986.22
2022-08-26T23:00:57.930Z,99985.41
2022-08-26T23:03:26.522Z,99965.09
2022-08-26T23:05:53.406Z,99967.78
2022-08-26T23:08:20.936Z,99957.66
2022-08-26T23:10:48.151Z,99972.38
2022-08-26T23:13:15.901Z,99973.72
2022-08-26T23:15:43.648Z,99980.22
2022-08-26T23:18:11.726Z,99959.97
2022-08-26T23:20:39.637Z,99969.19
2022-08-26T23:23:06.630Z,99963.66
2022-08-26T23:25:33.650Z,99968.91
2022-08-26T23:28:01.858Z,99948.84
2022-08-26T23:30:30.649Z,99955.03
2022-08-26T23:32:57.991Z,99953.97
2022-08-26T23:35:25.077Z,99955.00
2022-08-26T23:37:53.035Z,99958.84
2022-08-26T23:40:28.730Z,99949.66
2022-08-26T23:42:57.868Z,99950.50
2022-08-26T23:45:25.801Z,99954.41
2022-08-26T23:47:54.056Z,99958.81
2022-08-26T23:50:23.218Z,99946.88
2022-08-26T23:53:07.214Z,99943.13
2022-08-26T23:55:35.489Z,99954.19
2022-08-26T23:58:02.377Z,99944.84
